Airfield :
LOGIN :

Register | Disclaimer

   EN    FR    IT 

 










Legend :    VFR   Marginal VFR   IFR   Intensive IFR   Very Intensive IFR
Visi :
Ceiling :
>= 8 km
>= 3000ft
5 to 8 km
1000 to 3000 ft
1500m to 5 km
500 to 1000 ft
800 to 1500m
200 to 500 ft
< 800m
< 200 ft
Symbols :   Thunderstorms  Fog  Heavy snow  Heavy precipitations  Wind > 20 kt
SIGMETs :     Misc.  Thunderstorms  Icing  Turbulence  Mountain Waves  Volcanic Ashes







- Airport Elevation : 370 ft


EBBE - Beauvechain AB

CURRENT METAR :
  • 161655Z AUTO 29006KT 9999 FEW050/// 25/13 Q1014 BLU

EXPIRED METARs :
  • 161625Z AUTO 30005KT 9999 NCD 26/13 Q1014 BLU
  • 161604Z 27006KT 9999 FEW030 BKN270 27/14 Q1014 BLU FCST CANCEL
  • 161525Z 25006KT 9999 FEW030 BKN270 27/14 Q1014 BLU BLU
  • 161455Z 26007KT 9999 FEW030 BKN270 26/13 Q1014 BLU BLU
  • 161425Z 25006KT 9999 FEW030 BKN270 26/14 Q1014 BLU BLU

TAF TAF EBBE
Valid from the 16 at 13:00 until the 16 at 22:00 UTC


161141Z 1613/1622 20005KT 9999 SCT030
TEMPO 1620/1622 5000 -TSRA SCT020CB BKN040
No reported NOTAMs for that airfield.



MET'MAP, your aeronautical weather chart ! - Copyright ORBIFLY December 2007 - Disclaimer

ORBIFLY MET'MAP TEAM :

Programming & Development : Alexandra Zaïnal
Concept & Development : Baudouin d'Aumeries
Co-Development & Prog : Marc-Olivier Méhu
Technical & hardware support : Manuel Goepfert

Contact : metmap@orbifly.com




SOURCES & CREDITS :

   NOAA